Deming, Washington
Current Conditions -  °F | °C
As of 8:53 PM on Saturday 25 Oct 2014 (Local Time) from KBLI Reporting Station
Overcast Overcast  
Wind Chill: 51°   Ceiling: 400
Heat Index: 51°   Visibility: 10mi
Dew Point: 48°   Wind: 8mph
Humidity: 89%   Direction: 270°W
Pressure: 29.37"   Gusts: 20mph
Location:  48.83°N, 122.22°W
Report Text: KBLI 260353Z 27007G17KT 10SM OVC004 11/09 A2937 RMK AO2 WSHFT 0258 RAE36 PRESRR SLP952 P0003 T01060089
Loading
Personal Weather Stations






























Interactive Weather Map
Tropical Storm Tracking
New forecast layout! Learn more

10-Day Weather Forecast

Advertisements
Track Severe Weather on mobile